sensor_id;sensor_type;location;lat;lon;timestamp;P1;durP1;ratioP1;P2;durP2;ratioP2
46721;SDS011;32455;43.430;23.136;2023-08-06T00:00:27;2.33;;;1.90;;
46721;SDS011;32455;43.430;23.136;2023-08-06T00:03:12;2.53;;;1.58;;
46721;SDS011;32455;43.430;23.136;2023-08-06T00:05:58;3.75;;;1.55;;
46721;SDS011;32455;43.430;23.136;2023-08-06T00:08:44;2.28;;;1.67;;
46721;SDS011;32455;43.430;23.136;2023-08-06T00:11:29;3.72;;;1.85;;
46721;SDS011;32455;43.430;23.136;2023-08-06T00:14:14;2.40;;;1.55;;
46721;SDS011;32455;43.430;23.136;2023-08-06T00:17:01;4.45;;;1.83;;
46721;SDS011;32455;43.430;23.136;2023-08-06T00:19:47;4.63;;;2.50;;
46721;SDS011;32455;43.430;23.136;2023-08-06T00:22:32;4.63;;;1.90;;
46721;SDS011;32455;43.430;23.136;2023-08-06T00:25:19;6.20;;;1.75;;
46721;SDS011;32455;43.430;23.136;2023-08-06T00:28:04;1.83;;;1.30;;
46721;SDS011;32455;43.430;23.136;2023-08-06T00:30:55;2.85;;;1.50;;
46721;SDS011;32455;43.430;23.136;2023-08-06T00:33:40;3.15;;;1.63;;
46721;SDS011;32455;43.430;23.136;2023-08-06T00:36:26;7.10;;;1.90;;
46721;SDS011;32455;43.430;23.136;2023-08-06T00:39:11;4.75;;;2.45;;
46721;SDS011;32455;43.430;23.136;2023-08-06T00:41:55;5.00;;;2.20;;
46721;SDS011;32455;43.430;23.136;2023-08-06T00:44:42;4.88;;;2.22;;
46721;SDS011;32455;43.430;23.136;2023-08-06T00:47:27;4.18;;;1.90;;
46721;SDS011;32455;43.430;23.136;2023-08-06T00:50:16;4.45;;;1.88;;
46721;SDS011;32455;43.430;23.136;2023-08-06T00:53:02;3.42;;;1.83;;
46721;SDS011;32455;43.430;23.136;2023-08-06T00:55:47;3.55;;;1.73;;
46721;SDS011;32455;43.430;23.136;2023-08-06T00:58:33;4.43;;;2.33;;
46721;SDS011;32455;43.430;23.136;2023-08-06T01:01:20;2.95;;;2.13;;
46721;SDS011;32455;43.430;23.136;2023-08-06T01:04:05;5.40;;;1.80;;
46721;SDS011;32455;43.430;23.136;2023-08-06T01:13:16;3.13;;;1.60;;
46721;SDS011;32455;43.430;23.136;2023-08-06T01:16:21;6.53;;;1.80;;
46721;SDS011;32455;43.430;23.136;2023-08-06T01:19:18;2.72;;;1.40;;
46721;SDS011;32455;43.430;23.136;2023-08-06T01:22:04;1.63;;;1.52;;
46721;SDS011;32455;43.430;23.136;2023-08-06T01:24:50;1.60;;;1.50;;
46721;SDS011;32455;43.430;23.136;2023-08-06T01:30:34;2.15;;;1.80;;
46721;SDS011;32455;43.430;23.136;2023-08-06T01:33:26;2.60;;;1.80;;
46721;SDS011;32455;43.430;23.136;2023-08-06T01:36:16;4.95;;;1.65;;
46721;SDS011;32455;43.430;23.136;2023-08-06T01:39:04;3.95;;;1.30;;
46721;SDS011;32455;43.430;23.136;2023-08-06T01:41:50;10.25;;;2.33;;
46721;SDS011;32455;43.430;23.136;2023-08-06T01:44:35;7.85;;;2.58;;
46721;SDS011;32455;43.430;23.136;2023-08-06T01:47:20;6.60;;;2.40;;
46721;SDS011;32455;43.430;23.136;2023-08-06T01:50:06;5.00;;;2.05;;
46721;SDS011;32455;43.430;23.136;2023-08-06T01:52:50;4.63;;;1.98;;
46721;SDS011;32455;43.430;23.136;2023-08-06T01:55:36;8.20;;;2.03;;
46721;SDS011;32455;43.430;23.136;2023-08-06T01:58:21;2.58;;;1.63;;
46721;SDS011;32455;43.430;23.136;2023-08-06T02:01:06;4.88;;;1.75;;
46721;SDS011;32455;43.430;23.136;2023-08-06T02:03:52;2.47;;;1.50;;
46721;SDS011;32455;43.430;23.136;2023-08-06T02:06:37;6.25;;;1.48;;
46721;SDS011;32455;43.430;23.136;2023-08-06T02:09:22;4.95;;;1.80;;
46721;SDS011;32455;43.430;23.136;2023-08-06T02:12:08;4.47;;;2.20;;
46721;SDS011;32455;43.430;23.136;2023-08-06T02:14:54;2.80;;;1.75;;
46721;SDS011;32455;43.430;23.136;2023-08-06T02:17:39;2.67;;;2.15;;
46721;SDS011;32455;43.430;23.136;2023-08-06T02:20:24;9.63;;;2.00;;
46721;SDS011;32455;43.430;23.136;2023-08-06T02:23:10;2.92;;;1.50;;
46721;SDS011;32455;43.430;23.136;2023-08-06T02:26:02;2.75;;;1.52;;
46721;SDS011;32455;43.430;23.136;2023-08-06T02:28:48;4.15;;;1.92;;
46721;SDS011;32455;43.430;23.136;2023-08-06T02:31:34;4.05;;;1.73;;
46721;SDS011;32455;43.430;23.136;2023-08-06T02:34:19;7.38;;;1.80;;
46721;SDS011;32455;43.430;23.136;2023-08-06T02:37:04;3.75;;;1.80;;
46721;SDS011;32455;43.430;23.136;2023-08-06T02:39:50;5.35;;;1.80;;
46721;SDS011;32455;43.430;23.136;2023-08-06T02:42:35;2.95;;;1.60;;
46721;SDS011;32455;43.430;23.136;2023-08-06T02:45:21;2.95;;;1.80;;
46721;SDS011;32455;43.430;23.136;2023-08-06T02:48:06;4.90;;;1.60;;
46721;SDS011;32455;43.430;23.136;2023-08-06T02:50:52;2.58;;;1.83;;
46721;SDS011;32455;43.430;23.136;2023-08-06T02:53:38;4.85;;;1.80;;
46721;SDS011;32455;43.430;23.136;2023-08-06T02:56:23;3.30;;;1.90;;
46721;SDS011;32455;43.430;23.136;2023-08-06T02:59:08;4.22;;;1.88;;
46721;SDS011;32455;43.430;23.136;2023-08-06T03:01:53;2.33;;;1.65;;
46721;SDS011;32455;43.430;23.136;2023-08-06T03:04:39;2.38;;;2.05;;
46721;SDS011;32455;43.430;23.136;2023-08-06T03:07:24;2.88;;;1.50;;
46721;SDS011;32455;43.430;23.136;2023-08-06T03:10:10;2.97;;;1.55;;
46721;SDS011;32455;43.430;23.136;2023-08-06T03:12:55;3.58;;;1.60;;
46721;SDS011;32455;43.430;23.136;2023-08-06T03:15:41;2.47;;;1.70;;
46721;SDS011;32455;43.430;23.136;2023-08-06T03:18:26;3.55;;;1.73;;
46721;SDS011;32455;43.430;23.136;2023-08-06T03:21:11;5.00;;;1.50;;
46721;SDS011;32455;43.430;23.136;2023-08-06T03:23:57;2.10;;;1.20;;
46721;SDS011;32455;43.430;23.136;2023-08-06T03:26:42;1.98;;;1.40;;
46721;SDS011;32455;43.430;23.136;2023-08-06T03:29:27;1.70;;;1.05;;
46721;SDS011;32455;43.430;23.136;2023-08-06T03:32:13;4.65;;;1.20;;
46721;SDS011;32455;43.430;23.136;2023-08-06T03:34:57;1.17;;;1.10;;
46721;SDS011;32455;43.430;23.136;2023-08-06T03:37:43;3.30;;;1.02;;
46721;SDS011;32455;43.430;23.136;2023-08-06T03:40:28;0.95;;;0.95;;
46721;SDS011;32455;43.430;23.136;2023-08-06T03:43:13;1.60;;;1.05;;
46721;SDS011;32455;43.430;23.136;2023-08-06T03:45:59;3.83;;;1.52;;
46721;SDS011;32455;43.430;23.136;2023-08-06T03:48:43;2.78;;;1.10;;
46721;SDS011;32455;43.430;23.136;2023-08-06T03:51:29;4.82;;;1.20;;
46721;SDS011;32455;43.430;23.136;2023-08-06T03:54:14;1.50;;;1.27;;
46721;SDS011;32455;43.430;23.136;2023-08-06T03:56:59;4.18;;;1.10;;
46721;SDS011;32455;43.430;23.136;2023-08-06T03:59:45;2.67;;;1.40;;
46721;SDS011;32455;43.430;23.136;2023-08-06T04:02:30;2.10;;;1.02;;
46721;SDS011;32455;43.430;23.136;2023-08-06T04:05:16;3.92;;;1.13;;
46721;SDS011;32455;43.430;23.136;2023-08-06T04:08:01;4.25;;;1.35;;
46721;SDS011;32455;43.430;23.136;2023-08-06T04:10:49;1.73;;;1.23;;
46721;SDS011;32455;43.430;23.136;2023-08-06T04:13:36;1.52;;;1.10;;
46721;SDS011;32455;43.430;23.136;2023-08-06T04:16:21;1.98;;;1.27;;
46721;SDS011;32455;43.430;23.136;2023-08-06T04:19:06;2.20;;;1.23;;
46721;SDS011;32455;43.430;23.136;2023-08-06T04:21:51;3.50;;;1.38;;
46721;SDS011;32455;43.430;23.136;2023-08-06T04:24:37;1.80;;;1.30;;
46721;SDS011;32455;43.430;23.136;2023-08-06T04:27:23;4.93;;;1.50;;
46721;SDS011;32455;43.430;23.136;2023-08-06T04:30:08;2.83;;;1.27;;
46721;SDS011;32455;43.430;23.136;2023-08-06T04:32:59;2.33;;;1.52;;
46721;SDS011;32455;43.430;23.136;2023-08-06T04:35:44;2.05;;;1.30;;
46721;SDS011;32455;43.430;23.136;2023-08-06T04:38:29;1.70;;;1.48;;
46721;SDS011;32455;43.430;23.136;2023-08-06T04:41:14;2.05;;;1.73;;
46721;SDS011;32455;43.430;23.136;2023-08-06T04:43:59;3.17;;;1.73;;
46721;SDS011;32455;43.430;23.136;2023-08-06T04:46:45;4.60;;;1.48;;
46721;SDS011;32455;43.430;23.136;2023-08-06T04:49:30;11.13;;;1.77;;
46721;SDS011;32455;43.430;23.136;2023-08-06T04:52:15;5.57;;;1.67;;
46721;SDS011;32455;43.430;23.136;2023-08-06T04:55:00;4.75;;;2.00;;
46721;SDS011;32455;43.430;23.136;2023-08-06T04:57:46;7.50;;;1.98;;
46721;SDS011;32455;43.430;23.136;2023-08-06T05:00:32;4.60;;;2.05;;
46721;SDS011;32455;43.430;23.136;2023-08-06T05:03:18;4.90;;;2.20;;
46721;SDS011;32455;43.430;23.136;2023-08-06T05:06:03;3.30;;;1.90;;
46721;SDS011;32455;43.430;23.136;2023-08-06T05:08:49;2.80;;;2.35;;
46721;SDS011;32455;43.430;23.136;2023-08-06T05:11:34;5.85;;;2.30;;
46721;SDS011;32455;43.430;23.136;2023-08-06T05:14:19;2.03;;;1.83;;
46721;SDS011;32455;43.430;23.136;2023-08-06T05:17:03;5.75;;;2.20;;
46721;SDS011;32455;43.430;23.136;2023-08-06T05:19:49;3.55;;;2.10;;
46721;SDS011;32455;43.430;23.136;2023-08-06T05:22:34;2.80;;;2.60;;
46721;SDS011;32455;43.430;23.136;2023-08-06T05:25:20;3.95;;;2.83;;
46721;SDS011;32455;43.430;23.136;2023-08-06T05:28:05;3.00;;;2.47;;
46721;SDS011;32455;43.430;23.136;2023-08-06T05:30:51;3.92;;;2.17;;
46721;SDS011;32455;43.430;23.136;2023-08-06T05:33:36;2.33;;;2.05;;
46721;SDS011;32455;43.430;23.136;2023-08-06T05:36:22;4.55;;;2.03;;
46721;SDS011;32455;43.430;23.136;2023-08-06T05:39:07;2.70;;;1.98;;
46721;SDS011;32455;43.430;23.136;2023-08-06T05:41:53;2.13;;;1.85;;
46721;SDS011;32455;43.430;23.136;2023-08-06T05:44:39;3.30;;;2.40;;
46721;SDS011;32455;43.430;23.136;2023-08-06T05:47:25;4.30;;;2.50;;
46721;SDS011;32455;43.430;23.136;2023-08-06T05:50:11;4.43;;;2.17;;
46721;SDS011;32455;43.430;23.136;2023-08-06T05:52:56;2.40;;;2.20;;
46721;SDS011;32455;43.430;23.136;2023-08-06T05:55:41;3.92;;;2.17;;
46721;SDS011;32455;43.430;23.136;2023-08-06T05:58:27;2.30;;;2.10;;
46721;SDS011;32455;43.430;23.136;2023-08-06T06:01:13;2.70;;;2.08;;
46721;SDS011;32455;43.430;23.136;2023-08-06T06:03:58;3.17;;;2.88;;
46721;SDS011;32455;43.430;23.136;2023-08-06T06:06:44;4.00;;;2.33;;
46721;SDS011;32455;43.430;23.136;2023-08-06T06:09:29;3.50;;;2.25;;
46721;SDS011;32455;43.430;23.136;2023-08-06T06:12:15;2.33;;;2.13;;
46721;SDS011;32455;43.430;23.136;2023-08-06T06:15:00;3.30;;;2.35;;
46721;SDS011;32455;43.430;23.136;2023-08-06T06:17:46;4.82;;;2.30;;
46721;SDS011;32455;43.430;23.136;2023-08-06T06:20:32;4.32;;;2.25;;
46721;SDS011;32455;43.430;23.136;2023-08-06T06:23:18;4.75;;;2.22;;
46721;SDS011;32455;43.430;23.136;2023-08-06T06:26:03;2.25;;;2.00;;
46721;SDS011;32455;43.430;23.136;2023-08-06T06:28:48;2.53;;;2.05;;
46721;SDS011;32455;43.430;23.136;2023-08-06T06:31:34;3.45;;;1.85;;
46721;SDS011;32455;43.430;23.136;2023-08-06T06:34:19;2.50;;;1.83;;
46721;SDS011;32455;43.430;23.136;2023-08-06T06:37:04;2.72;;;1.73;;
46721;SDS011;32455;43.430;23.136;2023-08-06T06:39:50;2.13;;;1.65;;
46721;SDS011;32455;43.430;23.136;2023-08-06T06:42:35;2.50;;;1.52;;
46721;SDS011;32455;43.430;23.136;2023-08-06T06:45:21;1.30;;;1.20;;
46721;SDS011;32455;43.430;23.136;2023-08-06T06:48:06;1.35;;;1.25;;
46721;SDS011;32455;43.430;23.136;2023-08-06T06:50:51;1.50;;;1.40;;
46721;SDS011;32455;43.430;23.136;2023-08-06T06:53:37;2.97;;;1.83;;
46721;SDS011;32455;43.430;23.136;2023-08-06T06:56:21;2.15;;;1.80;;
46721;SDS011;32455;43.430;23.136;2023-08-06T06:59:07;3.45;;;1.63;;
46721;SDS011;32455;43.430;23.136;2023-08-06T07:01:52;2.45;;;1.67;;
46721;SDS011;32455;43.430;23.136;2023-08-06T07:04:38;1.80;;;1.70;;
46721;SDS011;32455;43.430;23.136;2023-08-06T07:07:24;1.83;;;1.45;;
46721;SDS011;32455;43.430;23.136;2023-08-06T07:10:09;1.30;;;1.20;;
46721;SDS011;32455;43.430;23.136;2023-08-06T07:12:55;1.90;;;1.70;;
46721;SDS011;32455;43.430;23.136;2023-08-06T07:15:41;1.38;;;1.27;;
46721;SDS011;32455;43.430;23.136;2023-08-06T07:18:26;1.40;;;1.30;;
46721;SDS011;32455;43.430;23.136;2023-08-06T07:21:11;1.95;;;1.50;;
46721;SDS011;32455;43.430;23.136;2023-08-06T07:23:56;1.98;;;1.80;;
46721;SDS011;32455;43.430;23.136;2023-08-06T07:26:41;1.70;;;1.58;;
46721;SDS011;32455;43.430;23.136;2023-08-06T07:29:27;2.72;;;1.45;;
46721;SDS011;32455;43.430;23.136;2023-08-06T07:32:12;1.50;;;1.25;;
46721;SDS011;32455;43.430;23.136;2023-08-06T07:34:57;2.08;;;1.60;;
46721;SDS011;32455;43.430;23.136;2023-08-06T07:37:45;2.65;;;1.60;;
46721;SDS011;32455;43.430;23.136;2023-08-06T07:40:30;1.73;;;1.50;;
46721;SDS011;32455;43.430;23.136;2023-08-06T07:43:15;3.35;;;1.65;;
46721;SDS011;32455;43.430;23.136;2023-08-06T07:46:01;4.60;;;2.10;;
46721;SDS011;32455;43.430;23.136;2023-08-06T07:48:46;1.70;;;1.60;;
46721;SDS011;32455;43.430;23.136;2023-08-06T07:51:32;2.65;;;1.40;;
46721;SDS011;32455;43.430;23.136;2023-08-06T07:54:17;2.60;;;1.67;;
46721;SDS011;32455;43.430;23.136;2023-08-06T07:57:03;2.08;;;1.85;;
46721;SDS011;32455;43.430;23.136;2023-08-06T07:59:48;3.03;;;1.33;;
46721;SDS011;32455;43.430;23.136;2023-08-06T08:02:34;1.77;;;1.60;;
46721;SDS011;32455;43.430;23.136;2023-08-06T08:05:19;1.90;;;1.23;;
46721;SDS011;32455;43.430;23.136;2023-08-06T08:08:04;2.17;;;1.80;;
46721;SDS011;32455;43.430;23.136;2023-08-06T08:10:50;2.00;;;1.40;;
46721;SDS011;32455;43.430;23.136;2023-08-06T08:13:35;1.67;;;1.30;;
46721;SDS011;32455;43.430;23.136;2023-08-06T08:16:21;3.22;;;1.70;;
46721;SDS011;32455;43.430;23.136;2023-08-06T08:19:06;2.03;;;1.55;;
46721;SDS011;32455;43.430;23.136;2023-08-06T08:21:51;2.47;;;1.63;;
46721;SDS011;32455;43.430;23.136;2023-08-06T08:24:37;2.00;;;1.60;;
46721;SDS011;32455;43.430;23.136;2023-08-06T08:27:22;1.50;;;1.40;;
46721;SDS011;32455;43.430;23.136;2023-08-06T08:30:06;2.08;;;1.50;;
46721;SDS011;32455;43.430;23.136;2023-08-06T08:32:51;4.82;;;1.58;;
46721;SDS011;32455;43.430;23.136;2023-08-06T08:35:37;1.60;;;1.50;;
46721;SDS011;32455;43.430;23.136;2023-08-06T08:38:22;1.88;;;1.60;;
46721;SDS011;32455;43.430;23.136;2023-08-06T08:41:09;1.55;;;1.33;;
46721;SDS011;32455;43.430;23.136;2023-08-06T08:43:56;1.27;;;1.17;;
46721;SDS011;32455;43.430;23.136;2023-08-06T08:46:44;3.50;;;1.80;;
46721;SDS011;32455;43.430;23.136;2023-08-06T08:49:32;2.47;;;1.50;;
46721;SDS011;32455;43.430;23.136;2023-08-06T08:52:20;1.60;;;1.50;;
46721;SDS011;32455;43.430;23.136;2023-08-06T08:55:08;1.55;;;1.45;;
46721;SDS011;32455;43.430;23.136;2023-08-06T08:57:53;1.67;;;1.52;;
46721;SDS011;32455;43.430;23.136;2023-08-06T09:00:39;1.73;;;1.63;;
46721;SDS011;32455;43.430;23.136;2023-08-06T09:03:27;3.30;;;1.95;;
46721;SDS011;32455;43.430;23.136;2023-08-06T09:06:13;2.38;;;1.65;;
46721;SDS011;32455;43.430;23.136;2023-08-06T09:09:20;1.70;;;1.60;;
46721;SDS011;32455;43.430;23.136;2023-08-06T09:12:16;3.30;;;1.90;;
46721;SDS011;32455;43.430;23.136;2023-08-06T09:15:02;2.03;;;1.63;;
46721;SDS011;32455;43.430;23.136;2023-08-06T09:17:48;4.10;;;1.80;;
46721;SDS011;32455;43.430;23.136;2023-08-06T09:20:33;4.03;;;1.70;;
46721;SDS011;32455;43.430;23.136;2023-08-06T09:23:19;1.92;;;1.80;;
46721;SDS011;32455;43.430;23.136;2023-08-06T09:26:04;2.05;;;1.73;;
46721;SDS011;32455;43.430;23.136;2023-08-06T09:28:49;4.10;;;1.90;;
46721;SDS011;32455;43.430;23.136;2023-08-06T09:31:49;2.63;;;1.95;;
46721;SDS011;32455;43.430;23.136;2023-08-06T09:34:41;2.70;;;1.85;;
46721;SDS011;32455;43.430;23.136;2023-08-06T09:37:35;1.92;;;1.75;;
46721;SDS011;32455;43.430;23.136;2023-08-06T09:40:27;2.08;;;1.50;;
46721;SDS011;32455;43.430;23.136;2023-08-06T09:43:15;2.60;;;2.05;;
46721;SDS011;32455;43.430;23.136;2023-08-06T09:46:10;2.42;;;1.90;;
46721;SDS011;32455;43.430;23.136;2023-08-06T09:48:58;2.15;;;1.95;;
46721;SDS011;32455;43.430;23.136;2023-08-06T09:51:43;2.42;;;2.22;;
46721;SDS011;32455;43.430;23.136;2023-08-06T09:54:29;1.80;;;1.60;;
46721;SDS011;32455;43.430;23.136;2023-08-06T09:57:17;4.15;;;2.10;;
46721;SDS011;32455;43.430;23.136;2023-08-06T10:00:02;2.42;;;1.88;;
46721;SDS011;32455;43.430;23.136;2023-08-06T10:02:49;2.30;;;2.10;;
46721;SDS011;32455;43.430;23.136;2023-08-06T10:05:39;2.75;;;2.35;;
46721;SDS011;32455;43.430;23.136;2023-08-06T10:08:24;3.88;;;2.50;;
46721;SDS011;32455;43.430;23.136;2023-08-06T10:11:10;3.80;;;2.28;;
46721;SDS011;32455;43.430;23.136;2023-08-06T10:13:59;5.88;;;2.80;;
46721;SDS011;32455;43.430;23.136;2023-08-06T10:16:49;3.78;;;2.35;;
46721;SDS011;32455;43.430;23.136;2023-08-06T10:19:35;2.80;;;2.20;;
46721;SDS011;32455;43.430;23.136;2023-08-06T10:22:21;3.42;;;2.30;;
46721;SDS011;32455;43.430;23.136;2023-08-06T10:25:08;4.50;;;2.17;;
46721;SDS011;32455;43.430;23.136;2023-08-06T10:27:53;3.60;;;2.42;;
46721;SDS011;32455;43.430;23.136;2023-08-06T10:30:44;4.75;;;2.58;;
46721;SDS011;32455;43.430;23.136;2023-08-06T10:33:44;2.47;;;2.28;;
46721;SDS011;32455;43.430;23.136;2023-08-06T10:36:30;2.42;;;2.22;;
46721;SDS011;32455;43.430;23.136;2023-08-06T10:39:18;2.55;;;2.30;;
46721;SDS011;32455;43.430;23.136;2023-08-06T10:42:03;3.20;;;2.40;;
46721;SDS011;32455;43.430;23.136;2023-08-06T10:48:05;2.70;;;2.50;;
46721;SDS011;32455;43.430;23.136;2023-08-06T10:50:50;2.92;;;2.70;;
46721;SDS011;32455;43.430;23.136;2023-08-06T10:53:36;6.70;;;3.10;;
46721;SDS011;32455;43.430;23.136;2023-08-06T10:56:22;3.03;;;2.72;;
46721;SDS011;32455;43.430;23.136;2023-08-06T10:59:10;3.28;;;2.97;;
46721;SDS011;32455;43.430;23.136;2023-08-06T11:02:00;3.88;;;3.58;;
46721;SDS011;32455;43.430;23.136;2023-08-06T11:04:46;11.73;;;5.03;;
46721;SDS011;32455;43.430;23.136;2023-08-06T11:07:33;8.00;;;5.20;;
46721;SDS011;32455;43.430;23.136;2023-08-06T11:10:19;7.03;;;5.28;;
46721;SDS011;32455;43.430;23.136;2023-08-06T11:13:05;6.88;;;5.43;;
46721;SDS011;32455;43.430;23.136;2023-08-06T11:15:52;6.05;;;5.15;;
46721;SDS011;32455;43.430;23.136;2023-08-06T11:18:37;6.40;;;4.75;;
46721;SDS011;32455;43.430;23.136;2023-08-06T11:21:27;10.05;;;5.50;;
46721;SDS011;32455;43.430;23.136;2023-08-06T11:24:13;6.43;;;5.00;;
46721;SDS011;32455;43.430;23.136;2023-08-06T11:26:59;15.30;;;9.05;;
46721;SDS011;32455;43.430;23.136;2023-08-06T11:29:45;8.68;;;6.20;;
46721;SDS011;32455;43.430;23.136;2023-08-06T11:32:30;9.80;;;6.70;;
46721;SDS011;32455;43.430;23.136;2023-08-06T11:35:16;32.78;;;22.85;;
46721;SDS011;32455;43.430;23.136;2023-08-06T11:38:01;13.20;;;11.13;;
46721;SDS011;32455;43.430;23.136;2023-08-06T11:40:50;7.97;;;7.18;;
46721;SDS011;32455;43.430;23.136;2023-08-06T11:43:36;9.15;;;6.95;;
46721;SDS011;32455;43.430;23.136;2023-08-06T11:46:20;6.90;;;6.20;;
46721;SDS011;32455;43.430;23.136;2023-08-06T11:49:07;5.38;;;4.97;;
46721;SDS011;32455;43.430;23.136;2023-08-06T11:51:53;6.18;;;5.53;;
46721;SDS011;32455;43.430;23.136;2023-08-06T11:54:38;7.57;;;6.75;;
46721;SDS011;32455;43.430;23.136;2023-08-06T11:57:23;7.30;;;4.90;;
46721;SDS011;32455;43.430;23.136;2023-08-06T12:00:11;6.10;;;5.60;;
46721;SDS011;32455;43.430;23.136;2023-08-06T12:02:57;6.32;;;5.82;;
46721;SDS011;32455;43.430;23.136;2023-08-06T12:05:42;6.35;;;5.75;;
46721;SDS011;32455;43.430;23.136;2023-08-06T12:08:30;5.43;;;4.88;;
46721;SDS011;32455;43.430;23.136;2023-08-06T12:11:16;9.27;;;8.30;;
46721;SDS011;32455;43.430;23.136;2023-08-06T12:14:01;5.50;;;5.00;;
46721;SDS011;32455;43.430;23.136;2023-08-06T12:16:47;5.07;;;4.60;;
46721;SDS011;32455;43.430;23.136;2023-08-06T12:19:32;4.63;;;4.20;;
46721;SDS011;32455;43.430;23.136;2023-08-06T12:22:17;4.35;;;3.95;;
46721;SDS011;32455;43.430;23.136;2023-08-06T12:25:03;3.92;;;3.63;;
46721;SDS011;32455;43.430;23.136;2023-08-06T12:27:53;4.78;;;4.38;;
46721;SDS011;32455;43.430;23.136;2023-08-06T12:30:38;4.82;;;4.43;;
46721;SDS011;32455;43.430;23.136;2023-08-06T12:33:27;5.00;;;4.53;;
46721;SDS011;32455;43.430;23.136;2023-08-06T12:36:12;4.07;;;3.72;;
46721;SDS011;32455;43.430;23.136;2023-08-06T12:38:58;4.30;;;3.88;;
46721;SDS011;32455;43.430;23.136;2023-08-06T12:41:43;3.90;;;3.60;;
46721;SDS011;32455;43.430;23.136;2023-08-06T12:44:31;4.13;;;3.72;;
46721;SDS011;32455;43.430;23.136;2023-08-06T12:47:17;5.07;;;4.10;;
46721;SDS011;32455;43.430;23.136;2023-08-06T12:50:03;3.50;;;3.20;;
46721;SDS011;32455;43.430;23.136;2023-08-06T12:52:48;3.10;;;2.80;;
46721;SDS011;32455;43.430;23.136;2023-08-06T12:55:34;3.40;;;3.10;;
46721;SDS011;32455;43.430;23.136;2023-08-06T12:58:19;4.18;;;3.78;;
46721;SDS011;32455;43.430;23.136;2023-08-06T13:01:04;4.30;;;3.90;;
46721;SDS011;32455;43.430;23.136;2023-08-06T13:03:50;4.47;;;4.07;;
46721;SDS011;32455;43.430;23.136;2023-08-06T13:06:35;4.07;;;3.20;;
46721;SDS011;32455;43.430;23.136;2023-08-06T13:09:21;5.15;;;3.67;;
46721;SDS011;32455;43.430;23.136;2023-08-06T13:12:07;3.60;;;3.30;;
46721;SDS011;32455;43.430;23.136;2023-08-06T13:14:52;3.75;;;3.40;;
46721;SDS011;32455;43.430;23.136;2023-08-06T13:17:38;6.72;;;3.75;;
46721;SDS011;32455;43.430;23.136;2023-08-06T13:20:23;5.53;;;3.60;;
46721;SDS011;32455;43.430;23.136;2023-08-06T13:23:08;3.67;;;3.38;;
46721;SDS011;32455;43.430;23.136;2023-08-06T13:25:54;3.80;;;3.38;;
46721;SDS011;32455;43.430;23.136;2023-08-06T13:28:40;4.03;;;3.25;;
46721;SDS011;32455;43.430;23.136;2023-08-06T13:31:25;4.90;;;3.88;;
46721;SDS011;32455;43.430;23.136;2023-08-06T13:34:12;4.40;;;3.97;;
46721;SDS011;32455;43.430;23.136;2023-08-06T13:36:57;4.55;;;4.15;;
46721;SDS011;32455;43.430;23.136;2023-08-06T13:39:43;3.85;;;3.55;;
46721;SDS011;32455;43.430;23.136;2023-08-06T13:42:28;4.85;;;3.90;;
46721;SDS011;32455;43.430;23.136;2023-08-06T13:45:13;7.03;;;5.60;;
46721;SDS011;32455;43.430;23.136;2023-08-06T13:47:58;8.35;;;7.55;;
46721;SDS011;32455;43.430;23.136;2023-08-06T13:50:42;7.07;;;6.38;;
46721;SDS011;32455;43.430;23.136;2023-08-06T13:53:28;8.65;;;7.15;;
46721;SDS011;32455;43.430;23.136;2023-08-06T13:56:14;7.07;;;6.38;;
46721;SDS011;32455;43.430;23.136;2023-08-06T13:59:02;7.47;;;6.65;;
46721;SDS011;32455;43.430;23.136;2023-08-06T14:01:47;6.97;;;6.30;;
46721;SDS011;32455;43.430;23.136;2023-08-06T14:04:32;7.25;;;6.40;;
46721;SDS011;32455;43.430;23.136;2023-08-06T14:07:21;6.32;;;5.75;;
46721;SDS011;32455;43.430;23.136;2023-08-06T14:10:06;7.20;;;6.60;;
46721;SDS011;32455;43.430;23.136;2023-08-06T14:12:54;8.15;;;6.30;;
46721;SDS011;32455;43.430;23.136;2023-08-06T14:15:40;6.95;;;6.25;;
46721;SDS011;32455;43.430;23.136;2023-08-06T14:18:25;6.10;;;5.47;;
46721;SDS011;32455;43.430;23.136;2023-08-06T14:21:10;5.38;;;4.88;;
46721;SDS011;32455;43.430;23.136;2023-08-06T14:23:56;4.93;;;4.40;;
46721;SDS011;32455;43.430;23.136;2023-08-06T14:26:41;5.38;;;4.88;;
46721;SDS011;32455;43.430;23.136;2023-08-06T14:29:27;5.43;;;4.38;;
46721;SDS011;32455;43.430;23.136;2023-08-06T14:32:12;6.43;;;4.22;;
46721;SDS011;32455;43.430;23.136;2023-08-06T14:34:58;5.50;;;4.50;;
46721;SDS011;32455;43.430;23.136;2023-08-06T14:37:44;5.20;;;4.40;;
46721;SDS011;32455;43.430;23.136;2023-08-06T14:40:30;5.68;;;4.05;;
46721;SDS011;32455;43.430;23.136;2023-08-06T14:43:19;7.05;;;4.97;;
46721;SDS011;32455;43.430;23.136;2023-08-06T14:46:05;5.57;;;4.75;;
46721;SDS011;32455;43.430;23.136;2023-08-06T14:48:50;5.97;;;4.45;;
46721;SDS011;32455;43.430;23.136;2023-08-06T14:51:35;6.90;;;4.55;;
46721;SDS011;32455;43.430;23.136;2023-08-06T14:54:20;4.80;;;4.40;;
46721;SDS011;32455;43.430;23.136;2023-08-06T14:57:06;5.50;;;4.53;;
46721;SDS011;32455;43.430;23.136;2023-08-06T14:59:53;5.35;;;4.85;;
46721;SDS011;32455;43.430;23.136;2023-08-06T15:02:40;7.18;;;4.38;;
46721;SDS011;32455;43.430;23.136;2023-08-06T15:05:25;5.45;;;4.45;;
46721;SDS011;32455;43.430;23.136;2023-08-06T15:08:11;4.45;;;4.05;;
46721;SDS011;32455;43.430;23.136;2023-08-06T15:10:56;5.90;;;4.00;;
46721;SDS011;32455;43.430;23.136;2023-08-06T15:13:42;5.30;;;4.45;;
46721;SDS011;32455;43.430;23.136;2023-08-06T15:16:27;4.65;;;4.25;;
46721;SDS011;32455;43.430;23.136;2023-08-06T15:19:13;4.70;;;4.30;;
46721;SDS011;32455;43.430;23.136;2023-08-06T15:21:58;5.43;;;4.88;;
46721;SDS011;32455;43.430;23.136;2023-08-06T15:24:43;6.05;;;4.80;;
46721;SDS011;32455;43.430;23.136;2023-08-06T15:27:29;5.28;;;4.78;;
46721;SDS011;32455;43.430;23.136;2023-08-06T15:30:14;5.32;;;4.18;;
46721;SDS011;32455;43.430;23.136;2023-08-06T15:32:59;6.50;;;4.35;;
46721;SDS011;32455;43.430;23.136;2023-08-06T15:35:44;6.32;;;4.05;;
46721;SDS011;32455;43.430;23.136;2023-08-06T15:38:30;5.00;;;3.85;;
46721;SDS011;32455;43.430;23.136;2023-08-06T15:41:16;5.55;;;3.47;;
46721;SDS011;32455;43.430;23.136;2023-08-06T15:44:04;4.43;;;3.10;;
46721;SDS011;32455;43.430;23.136;2023-08-06T15:46:49;5.43;;;3.65;;
46721;SDS011;32455;43.430;23.136;2023-08-06T15:49:35;6.28;;;3.67;;
46721;SDS011;32455;43.430;23.136;2023-08-06T15:52:20;5.85;;;3.67;;
46721;SDS011;32455;43.430;23.136;2023-08-06T15:55:06;3.97;;;3.60;;
46721;SDS011;32455;43.430;23.136;2023-08-06T15:57:52;6.57;;;3.88;;
46721;SDS011;32455;43.430;23.136;2023-08-06T16:00:37;5.55;;;4.38;;
46721;SDS011;32455;43.430;23.136;2023-08-06T16:03:22;7.00;;;4.25;;
46721;SDS011;32455;43.430;23.136;2023-08-06T16:06:09;5.03;;;4.63;;
46721;SDS011;32455;43.430;23.136;2023-08-06T16:08:55;9.93;;;5.00;;
46721;SDS011;32455;43.430;23.136;2023-08-06T16:11:40;6.50;;;5.90;;
46721;SDS011;32455;43.430;23.136;2023-08-06T16:14:26;7.10;;;6.28;;
46721;SDS011;32455;43.430;23.136;2023-08-06T16:17:12;6.72;;;6.00;;
46721;SDS011;32455;43.430;23.136;2023-08-06T16:19:58;12.65;;;6.75;;
46721;SDS011;32455;43.430;23.136;2023-08-06T16:22:43;7.30;;;6.60;;
46721;SDS011;32455;43.430;23.136;2023-08-06T16:25:29;7.68;;;6.93;;
46721;SDS011;32455;43.430;23.136;2023-08-06T16:28:14;10.15;;;8.32;;
46721;SDS011;32455;43.430;23.136;2023-08-06T16:30:59;7.95;;;7.25;;
46721;SDS011;32455;43.430;23.136;2023-08-06T16:33:44;9.38;;;7.93;;
46721;SDS011;32455;43.430;23.136;2023-08-06T16:36:29;8.68;;;7.88;;